Time;durP1;ratioP1;P1;durP2;ratioP2;P2;SDS_P1;SDS_P2;PMS_P1;PMS_P2;Temp;Humidity;BMP_temperature;BMP_pressure;BME280_temperature;BME280_humidity;BME280_pressure;Samples;Min_cycle;Max_cycle;Signal;HPM_P1;HPM_P2
2022/12/05 00:01:21;;;;;;;35.27;19.57;;;5.80;76.10;;;;;;5036439;28;20513;-62
2022/12/05 00:03:48;;;;;;;35.23;19.10;;;5.90;76.20;;;;;;5043622;28;20093;-62
2022/12/05 00:06:15;;;;;;;36.07;20.93;;;5.90;76.20;;;;;;5053653;28;20037;-63
2022/12/05 00:08:41;;;;;;;37.33;21.50;;;5.90;76.30;;;;;;5045080;28;20024;-63
2022/12/05 00:11:19;;;;;;;36.10;20.77;;;5.80;76.30;;;;;;5046084;28;20036;-62
2022/12/05 00:13:45;;;;;;;33.60;19.67;;;5.90;76.50;;;;;;5038294;28;20039;-63
2022/12/05 00:16:15;;;;;;;34.77;19.30;;;5.90;76.50;;;;;;5052793;28;20029;-62
2022/12/05 00:18:41;;;;;;;36.83;20.90;;;5.90;76.60;;;;;;5040703;28;20418;-63
2022/12/05 00:21:12;;;;;;;35.70;19.33;;;5.90;76.60;;;;;;5045949;28;20060;-62
2022/12/05 00:23:37;;;;;;;37.20;21.47;;;5.90;76.70;;;;;;5038449;28;20446;-63
2022/12/05 00:26:04;;;;;;;35.33;20.63;;;5.90;76.70;;;;;;5039735;28;20090;-62
2022/12/05 00:28:33;;;;;;;35.23;19.60;;;5.90;76.80;;;;;;5045798;28;20501;-63
2022/12/05 00:31:04;;;;;;;37.60;21.17;;;5.90;76.90;;;;;;5033948;28;20033;-63
2022/12/05 00:33:30;;;;;;;37.28;20.20;;;5.90;76.90;;;;;;5032407;28;20338;-63
2022/12/05 00:36:01;;;;;;;41.23;21.60;;;5.90;76.90;;;;;;5036515;28;20029;-63
2022/12/05 00:38:27;;;;;;;36.03;21.08;;;5.90;77.00;;;;;;5053310;28;20100;-62
2022/12/05 00:40:52;;;;;;;38.50;21.00;;;5.90;77.10;;;;;;5039583;28;20121;-62
2022/12/05 00:43:18;;;;;;;35.90;21.07;;;5.90;77.10;;;;;;5038853;28;20460;-63
2022/12/05 00:45:43;;;;;;;37.70;20.80;;;5.90;77.20;;;;;;5037063;28;20029;-63
2022/12/05 00:48:09;;;;;;;36.33;21.67;;;5.90;77.30;;;;;;5046158;28;20099;-63
2022/12/05 00:50:35;;;;;;;40.07;21.07;;;5.90;77.30;;;;;;5048240;28;20103;-62
2022/12/05 00:53:00;;;;;;;37.13;20.70;;;5.90;77.30;;;;;;5041421;28;20025;-63
2022/12/05 00:55:26;;;;;;;38.37;21.47;;;5.90;77.40;;;;;;5043779;28;20361;-62
2022/12/05 00:57:52;;;;;;;36.97;19.50;;;5.90;77.40;;;;;;5035123;28;20034;-63
2022/12/05 01:00:18;;;;;;;38.33;21.17;;;5.90;77.40;;;;;;5063525;28;20033;-63
2022/12/05 01:02:43;;;;;;;33.90;19.77;;;5.90;77.50;;;;;;5041111;28;20025;-62
2022/12/05 01:05:09;;;;;;;37.87;20.60;;;5.90;77.60;;;;;;5046603;28;20026;-62
2022/12/05 01:07:36;;;;;;;33.97;19.83;;;5.90;77.60;;;;;;5045009;28;20034;-63
2022/12/05 01:10:02;;;;;;;36.67;21.43;;;5.90;77.60;;;;;;5045430;28;20033;-62
2022/12/05 01:12:28;;;;;;;36.33;20.70;;;5.90;77.60;;;;;;5044279;28;20080;-63
2022/12/05 01:14:54;;;;;;;39.33;21.20;;;5.90;77.70;;;;;;5044665;28;20079;-63
2022/12/05 01:17:20;;;;;;;33.70;19.23;;;5.90;77.70;;;;;;5046871;28;20033;-63
2022/12/05 01:19:45;;;;;;;37.63;20.90;;;5.90;77.70;;;;;;5045487;28;20190;-63
2022/12/05 01:22:11;;;;;;;37.27;20.63;;;5.90;77.80;;;;;;5046424;28;20056;-62
2022/12/05 01:24:37;;;;;;;38.43;20.93;;;5.90;77.80;;;;;;5037339;28;20124;-62
2022/12/05 01:27:02;;;;;;;35.27;19.60;;;5.90;77.80;;;;;;5034786;28;20030;-62
2022/12/05 01:29:28;;;;;;;39.63;20.63;;;6.00;77.90;;;;;;5041322;28;20033;-63
2022/12/05 01:31:54;;;;;;;36.73;21.47;;;5.90;77.90;;;;;;5039418;28;20094;-63
2022/12/05 01:34:21;;;;;;;36.50;20.73;;;5.90;77.90;;;;;;5035899;28;20304;-62
2022/12/05 01:36:47;;;;;;;36.23;21.13;;;5.90;77.90;;;;;;5048404;28;20035;-63
2022/12/05 01:39:14;;;;;;;38.03;21.93;;;5.90;78.00;;;;;;5037287;28;20116;-62
2022/12/05 01:41:44;;;;;;;36.60;20.30;;;5.90;78.70;;;;;;5044999;28;20021;-63
2022/12/05 01:44:09;;;;;;;34.60;19.00;;;6.00;78.10;;;;;;5034867;28;20087;-62
2022/12/05 01:46:38;;;;;;;34.37;19.60;;;5.90;78.10;;;;;;5046413;28;20029;-62
2022/12/05 01:49:15;;;;;;;32.83;19.27;;;5.90;78.10;;;;;;5040746;28;20029;-63
2022/12/05 01:51:45;;;;;;;34.30;19.70;;;6.00;78.20;;;;;;5044636;28;20025;-62
2022/12/05 01:54:12;;;;;;;33.40;19.53;;;5.90;78.10;;;;;;5034912;28;20167;-63
2022/12/05 01:56:41;;;;;;;37.47;20.70;;;5.90;78.10;;;;;;5041954;28;20335;-62
2022/12/05 01:59:10;;;;;;;32.63;18.67;;;6.00;78.30;;;;;;5036161;28;20025;-63
2022/12/05 02:01:36;;;;;;;33.63;18.47;;;5.90;78.30;;;;;;5043576;28;20030;-62
2022/12/05 02:04:03;;;;;;;38.27;20.13;;;6.00;78.30;;;;;;5035055;28;20112;-62
2022/12/05 02:06:29;;;;;;;37.33;19.90;;;6.00;78.40;;;;;;5034327;28;20017;-63
2022/12/05 02:08:55;;;;;;;30.27;18.13;;;6.00;78.40;;;;;;5041150;28;20056;-62
2022/12/05 02:11:23;;;;;;;33.13;18.30;;;6.00;78.40;;;;;;5044420;28;20069;-63
2022/12/05 02:14:08;;;;;;;34.23;18.43;;;6.00;78.50;;;;;;5040839;28;20039;-62
2022/12/05 02:17:15;;;;;;;32.70;18.43;;;6.00;78.50;;;;;;5060958;28;20352;-63
2022/12/05 02:20:06;;;;;;;33.50;18.47;;;6.00;78.60;;;;;;5024229;28;20124;-63
2022/12/05 02:22:41;;;;;;;32.50;18.13;;;6.00;78.60;;;;;;5047891;28;20071;-63
2022/12/05 02:25:43;;;;;;;34.23;19.30;;;6.00;78.60;;;;;;5043015;28;20064;-63
2022/12/05 02:28:18;;;;;;;31.40;18.70;;;6.00;78.60;;;;;;5038539;28;20107;-62
2022/12/05 02:31:16;;;;;;;29.67;18.27;;;6.00;78.60;;;;;;5040729;28;20033;-62
2022/12/05 02:34:17;;;;;;;30.47;17.90;;;6.00;78.70;;;;;;5036008;28;20056;-62
2022/12/05 02:36:54;;;;;;;32.47;17.73;;;6.00;78.80;;;;;;4999182;28;20164;-62
2022/12/05 02:39:44;;;;;;;32.60;18.03;;;6.00;78.90;;;;;;4990431;28;20038;-62
2022/12/05 02:42:20;;;;;;;31.23;17.17;;;6.00;78.90;;;;;;4985431;28;20125;-63
2022/12/05 02:44:56;;;;;;;29.80;17.47;;;6.00;78.80;;;;;;4997735;28;20042;-62
2022/12/05 02:47:26;;;;;;;31.40;17.93;;;6.00;78.90;;;;;;4995391;28;20044;-63
2022/12/05 02:49:53;;;;;;;31.40;18.23;;;6.00;78.90;;;;;;5006701;28;20041;-62
2022/12/05 02:52:21;;;;;;;32.97;18.57;;;6.00;79.00;;;;;;4975198;28;20038;-63
2022/12/05 02:54:50;;;;;;;35.67;20.37;;;6.00;79.00;;;;;;4980589;28;20046;-62
2022/12/05 02:57:16;;;;;;;34.77;19.40;;;6.00;79.10;;;;;;4988789;28;20041;-63
2022/12/05 02:59:42;;;;;;;33.03;19.23;;;6.10;79.20;;;;;;5005555;28;20033;-63
2022/12/05 03:02:20;;;;;;;32.37;18.37;;;6.00;79.20;;;;;;4985406;28;20046;-63
2022/12/05 03:04:46;;;;;;;36.60;19.27;;;6.10;79.30;;;;;;4990044;28;20475;-61
2022/12/05 03:07:12;;;;;;;31.33;17.80;;;6.10;79.30;;;;;;5004533;28;20037;-61
2022/12/05 03:09:44;;;;;;;30.57;17.40;;;6.10;79.30;;;;;;4992545;28;20402;-61
2022/12/05 03:12:21;;;;;;;31.05;17.63;;;6.10;79.30;;;;;;5046196;28;20074;-61
2022/12/05 03:15:10;;;;;;;34.67;17.87;;;6.10;79.30;;;;;;5045948;28;20029;-61
2022/12/05 03:17:45;;;;;;;30.50;17.97;;;6.10;79.30;;;;;;5042396;28;20033;-61
2022/12/05 03:20:27;;;;;;;36.03;18.27;;;6.10;79.30;;;;;;5051496;28;20048;-61
2022/12/05 03:23:04;;;;;;;31.90;17.15;;;6.10;79.40;;;;;;5039261;28;20116;-61
2022/12/05 03:25:40;;;;;;;34.87;18.90;;;6.10;79.50;;;;;;5030919;28;20036;-61
2022/12/05 03:28:15;;;;;;;31.80;18.30;;;6.10;79.50;;;;;;5036659;28;20038;-61
2022/12/05 03:30:41;;;;;;;29.83;17.37;;;6.10;79.50;;;;;;5038850;28;20044;-61
2022/12/05 03:33:10;;;;;;;29.87;17.27;;;6.10;79.50;;;;;;5025722;28;20026;-61
2022/12/05 03:35:39;;;;;;;30.50;16.67;;;6.20;79.70;;;;;;5033702;28;20037;-61
2022/12/05 03:38:20;;;;;;;30.13;17.60;;;6.20;79.70;;;;;;5031361;28;20174;-61
2022/12/05 03:41:00;;;;;;;30.43;17.27;;;6.20;79.70;;;;;;5034497;28;20171;-61
2022/12/05 03:43:39;;;;;;;31.40;16.33;;;6.20;79.70;;;;;;5031194;28;20033;-61
2022/12/05 03:46:11;;;;;;;32.30;17.37;;;6.20;79.80;;;;;;5037104;28;20044;-61
2022/12/05 03:48:53;;;;;;;31.03;17.27;;;6.20;79.80;;;;;;5040407;28;20386;-61
2022/12/05 03:51:24;;;;;;;29.03;17.30;;;6.20;79.80;;;;;;5039310;28;20033;-61
2022/12/05 03:54:01;;;;;;;26.33;14.87;;;6.20;79.90;;;;;;5033023;28;20450;-61
2022/12/05 03:56:34;;;;;;;27.80;16.30;;;6.20;79.90;;;;;;5037933;28;20029;-61
2022/12/05 03:59:14;;;;;;;31.10;17.83;;;6.20;79.90;;;;;;5039713;28;20033;-61
2022/12/05 04:01:41;;;;;;;27.30;15.23;;;6.20;79.90;;;;;;5038727;28;20090;-61
2022/12/05 04:04:12;;;;;;;30.63;17.80;;;6.20;79.90;;;;;;5033332;28;20025;-61
2022/12/05 04:06:41;;;;;;;31.08;17.85;;;6.20;80.00;;;;;;5040820;28;20025;-61
2022/12/05 04:09:28;;;;;;;33.50;18.47;;;6.20;80.00;;;;;;5042458;28;20029;-61
2022/12/05 04:12:02;;;;;;;30.37;17.13;;;6.20;80.00;;;;;;5035204;28;20398;-61
2022/12/05 04:14:38;;;;;;;26.70;15.53;;;6.20;80.00;;;;;;5039107;28;20370;-61
2022/12/05 04:17:10;;;;;;;30.60;16.90;;;6.20;80.10;;;;;;5042427;28;20077;-61
2022/12/05 04:22:43;;;;;;;27.97;16.43;;;6.20;80.10;;;;;;5036289;28;20112;-61
2022/12/05 04:28:02;;;;;;;29.37;17.23;;;6.20;80.10;;;;;;5050602;28;20044;-61
2022/12/05 04:30:45;;;;;;;27.30;16.00;;;6.20;80.20;;;;;;5041465;28;20111;-61
2022/12/05 04:33:22;;;;;;;30.33;17.13;;;6.20;80.20;;;;;;5032853;28;20063;-61
2022/12/05 04:36:01;;;;;;;30.03;17.50;;;6.20;80.30;;;;;;5027179;28;20043;-63
2022/12/05 04:38:35;;;;;;;30.77;16.90;;;6.20;80.30;;;;;;5050444;28;20377;-61
2022/12/05 04:41:05;;;;;;;26.47;16.23;;;6.20;80.30;;;;;;5052929;28;20038;-63
2022/12/05 04:43:34;;;;;;;29.47;16.83;;;6.20;80.40;;;;;;5035888;28;20033;-61
2022/12/05 04:46:03;;;;;;;28.23;17.40;;;6.20;80.40;;;;;;5037740;28;20033;-61
2022/12/05 04:48:30;;;;;;;26.90;16.53;;;6.20;80.50;;;;;;5043796;28;20039;-61
2022/12/05 04:50:57;;;;;;;28.83;17.10;;;6.20;80.50;;;;;;5056662;28;20115;-61
2022/12/05 04:53:28;;;;;;;25.17;16.00;;;6.20;80.50;;;;;;5034217;28;20040;-61
2022/12/05 04:55:56;;;;;;;25.85;14.77;;;6.30;80.50;;;;;;5054632;28;20025;-61
2022/12/05 04:58:25;;;;;;;26.67;15.50;;;6.30;80.50;;;;;;5037143;28;20022;-61
2022/12/05 05:01:01;;;;;;;25.60;15.43;;;6.30;80.60;;;;;;5045599;28;20029;-61
2022/12/05 05:03:38;;;;;;;27.70;15.47;;;6.30;80.60;;;;;;5036853;28;20091;-61
2022/12/05 05:06:06;;;;;;;27.03;15.23;;;6.30;80.60;;;;;;5045450;28;20415;-61
2022/12/05 05:08:31;;;;;;;28.70;17.27;;;6.30;80.60;;;;;;5037951;28;20053;-61
2022/12/05 05:11:10;;;;;;;28.90;17.53;;;6.30;80.60;;;;;;5067842;28;20067;-61
2022/12/05 05:13:35;;;;;;;27.77;15.87;;;6.30;80.70;;;;;;5032991;28;20113;-61
2022/12/05 05:16:02;;;;;;;26.43;15.03;;;6.30;80.70;;;;;;5051928;28;20518;-61
2022/12/05 05:18:27;;;;;;;25.93;15.87;;;6.30;80.70;;;;;;5047177;28;20022;-61
2022/12/05 05:20:53;;;;;;;26.00;15.97;;;6.30;80.70;;;;;;5043501;28;20067;-61
2022/12/05 05:23:18;;;;;;;25.60;16.33;;;6.30;80.80;;;;;;5035207;28;20131;-61
2022/12/05 05:25:44;;;;;;;27.17;16.20;;;6.30;80.90;;;;;;5039196;28;20043;-61
2022/12/05 05:28:10;;;;;;;25.90;15.83;;;6.30;80.90;;;;;;5040286;28;20338;-61
2022/12/05 05:30:35;;;;;;;25.43;14.50;;;6.30;80.90;;;;;;5036053;28;20473;-61
2022/12/05 05:33:01;;;;;;;28.90;15.83;;;6.30;80.90;;;;;;5041443;28;20032;-61
2022/12/05 05:35:26;;;;;;;24.07;14.83;;;6.30;80.90;;;;;;5038726;28;20025;-61
2022/12/05 05:37:52;;;;;;;26.90;15.40;;;6.40;80.90;;;;;;5032518;28;20132;-61
2022/12/05 05:40:18;;;;;;;26.33;15.23;;;6.30;80.90;;;;;;5031368;28;20029;-61
2022/12/05 05:42:48;;;;;;;26.73;15.57;;;6.30;80.90;;;;;;5035182;28;20029;-61
2022/12/05 05:45:15;;;;;;;26.60;16.53;;;6.40;81.00;;;;;;5034456;28;20120;-61
2022/12/05 05:47:41;;;;;;;27.20;14.80;;;6.40;81.00;;;;;;5034625;28;20037;-61
2022/12/05 05:50:08;;;;;;;25.87;15.47;;;6.40;81.00;;;;;;5034620;28;20171;-61
2022/12/05 05:52:35;;;;;;;25.43;14.53;;;6.40;81.10;;;;;;5030707;28;20036;-61
2022/12/05 05:55:03;;;;;;;26.37;15.13;;;6.40;81.00;;;;;;5033994;28;20021;-61
2022/12/05 05:57:30;;;;;;;26.27;15.20;;;6.40;81.00;;;;;;5033951;28;20152;-61
2022/12/05 05:59:55;;;;;;;24.87;14.73;;;6.40;81.10;;;;;;5034196;28;20091;-61
2022/12/05 06:02:21;;;;;;;27.27;15.63;;;6.40;81.10;;;;;;5033000;28;20393;-61
2022/12/05 06:04:47;;;;;;;23.27;14.47;;;6.40;81.10;;;;;;5033242;28;20475;-61
2022/12/05 06:07:12;;;;;;;26.63;15.73;;;6.40;81.10;;;;;;5033913;28;20034;-61
2022/12/05 06:09:38;;;;;;;24.30;15.97;;;6.40;81.20;;;;;;5029567;28;20071;-61
2022/12/05 06:12:04;;;;;;;25.27;14.37;;;6.40;81.10;;;;;;5030554;28;20021;-61
2022/12/05 06:14:30;;;;;;;25.07;15.50;;;6.40;81.20;;;;;;5035047;28;20025;-62
2022/12/05 06:16:55;;;;;;;25.53;15.63;;;6.40;81.20;;;;;;5048850;28;20365;-61
2022/12/05 06:19:21;;;;;;;24.17;14.60;;;6.40;81.20;;;;;;5034459;28;20025;-62
2022/12/05 06:21:49;;;;;;;26.57;14.97;;;6.40;81.20;;;;;;5009893;28;20169;-62
2022/12/05 06:24:15;;;;;;;25.43;14.90;;;6.40;81.30;;;;;;5012738;28;20029;-62
2022/12/05 06:26:42;;;;;;;25.00;15.07;;;6.50;81.30;;;;;;5012399;28;20113;-62
2022/12/05 06:29:08;;;;;;;26.60;16.03;;;6.40;81.20;;;;;;5013054;28;20044;-62
2022/12/05 06:31:33;;;;;;;24.20;15.43;;;6.40;81.20;;;;;;5014499;28;20029;-62
2022/12/05 06:34:03;;;;;;;26.47;15.90;;;6.40;81.30;;;;;;5018113;28;20091;-62
2022/12/05 06:36:30;;;;;;;26.00;14.87;;;6.40;81.30;;;;;;5014421;28;20033;-61
2022/12/05 06:38:57;;;;;;;26.47;15.07;;;6.50;81.30;;;;;;5018919;28;20033;-62
2022/12/05 06:41:23;;;;;;;24.90;14.40;;;6.50;81.30;;;;;;5013276;28;20026;-62
2022/12/05 06:43:55;;;;;;;25.47;14.83;;;6.50;81.30;;;;;;5028915;28;20029;-61
2022/12/05 06:46:21;;;;;;;22.00;13.93;;;6.50;81.40;;;;;;5013390;28;20402;-61
2022/12/05 06:48:47;;;;;;;22.33;14.93;;;6.50;81.30;;;;;;5015808;28;20048;-61
2022/12/05 06:51:15;;;;;;;24.10;14.87;;;6.50;81.40;;;;;;5026443;28;20030;-61
2022/12/05 06:53:41;;;;;;;23.77;15.33;;;6.50;81.40;;;;;;5014364;28;20030;-61
2022/12/05 06:56:11;;;;;;;24.80;14.57;;;6.50;81.40;;;;;;5026991;28;20022;-61
2022/12/05 06:58:37;;;;;;;23.03;14.43;;;6.50;81.40;;;;;;5026943;28;20041;-62
2022/12/05 07:03:48;;;;;;;23.77;14.40;;;6.40;81.50;;;;;;5014479;28;20439;-61
2022/12/05 07:06:15;;;;;;;25.07;15.53;;;6.50;81.50;;;;;;5043850;28;20084;-61
2022/12/05 07:08:40;;;;;;;24.50;14.93;;;6.50;81.50;;;;;;5022947;28;20029;-62
2022/12/05 07:11:07;;;;;;;24.20;14.90;;;6.40;81.50;;;;;;5017164;28;20099;-61
2022/12/05 07:13:32;;;;;;;25.17;15.30;;;6.50;81.50;;;;;;5023585;28;20045;-62
2022/12/05 07:15:58;;;;;;;26.30;15.50;;;6.50;81.50;;;;;;5017008;28;20030;-62
2022/12/05 07:18:25;;;;;;;22.43;13.70;;;6.50;81.50;;;;;;5020659;28;20083;-61
2022/12/05 07:20:58;;;;;;;23.37;14.20;;;6.50;81.50;;;;;;5037864;28;20046;-62
2022/12/05 07:23:24;;;;;;;25.97;14.97;;;6.50;81.50;;;;;;5036294;28;20036;-61
2022/12/05 07:25:49;;;;;;;23.50;14.20;;;6.50;81.50;;;;;;5053872;28;20028;-63
2022/12/05 07:28:15;;;;;;;24.07;14.20;;;6.50;81.60;;;;;;5037186;28;20033;-63
2022/12/05 07:30:41;;;;;;;21.90;13.83;;;6.50;81.50;;;;;;5037717;28;20036;-64
2022/12/05 07:33:06;;;;;;;23.43;13.97;;;6.60;81.60;;;;;;5034626;28;20052;-63
2022/12/05 07:35:32;;;;;;;23.20;14.07;;;6.60;81.60;;;;;;5036308;28;20435;-64
2022/12/05 07:38:01;;;;;;;22.37;14.13;;;6.60;81.50;;;;;;5030806;28;20101;-64
2022/12/05 07:40:26;;;;;;;20.07;13.37;;;6.70;81.60;;;;;;5037550;28;20171;-64
2022/12/05 07:42:52;;;;;;;19.33;12.30;;;6.60;81.50;;;;;;5030625;28;20022;-64
2022/12/05 07:45:19;;;;;;;21.60;13.67;;;6.60;81.50;;;;;;5040129;28;20116;-65
2022/12/05 07:47:44;;;;;;;21.30;13.77;;;6.60;81.60;;;;;;5038672;28;20386;-64
2022/12/05 07:50:10;;;;;;;22.90;14.20;;;6.60;81.60;;;;;;5051233;28;20037;-64
2022/12/05 07:52:36;;;;;;;19.73;13.00;;;6.60;81.70;;;;;;5056025;28;20367;-64
2022/12/05 07:55:02;;;;;;;20.60;13.10;;;6.60;81.70;;;;;;5043250;28;20087;-64
2022/12/05 07:57:30;;;;;;;19.10;12.40;;;6.60;81.80;;;;;;5053661;28;20029;-64
2022/12/05 07:59:56;;;;;;;21.57;13.33;;;6.60;81.80;;;;;;5049377;28;20029;-65
2022/12/05 08:02:22;;;;;;;22.50;13.97;;;6.60;81.80;;;;;;5038994;28;20506;-63
2022/12/05 08:04:47;;;;;;;22.57;13.57;;;6.60;81.80;;;;;;5042455;28;20480;-64
2022/12/05 08:07:13;;;;;;;21.37;13.93;;;6.60;81.80;;;;;;5042936;28;20032;-64
2022/12/05 08:09:38;;;;;;;21.27;12.87;;;6.60;81.80;;;;;;5045785;28;20053;-64
2022/12/05 08:12:04;;;;;;;21.20;13.30;;;6.60;81.80;;;;;;5053822;28;20464;-64
2022/12/05 08:14:30;;;;;;;21.63;13.10;;;6.60;81.80;;;;;;5044863;28;20027;-64
2022/12/05 08:16:55;;;;;;;20.13;12.70;;;6.60;81.90;;;;;;5059975;28;20044;-64
2022/12/05 08:19:21;;;;;;;20.67;13.17;;;6.60;81.90;;;;;;5041153;28;20207;-65
2022/12/05 08:21:47;;;;;;;22.03;13.27;;;6.60;81.90;;;;;;5044335;28;20036;-64
2022/12/05 08:24:13;;;;;;;20.77;13.23;;;6.60;81.90;;;;;;5052526;28;20036;-64
2022/12/05 08:26:39;;;;;;;25.53;14.27;;;6.60;81.90;;;;;;5051977;28;20032;-64
2022/12/05 08:29:08;;;;;;;21.53;13.80;;;6.60;82.00;;;;;;5036879;28;20152;-64
2022/12/05 08:31:37;;;;;;;22.70;15.40;;;6.60;82.00;;;;;;5040035;28;20052;-65
2022/12/05 08:34:03;;;;;;;24.10;14.40;;;6.60;82.10;;;;;;5037535;28;20031;-64
2022/12/05 08:36:30;;;;;;;24.10;15.87;;;6.60;82.10;;;;;;5050160;28;20041;-64
2022/12/05 08:39:01;;;;;;;22.00;14.43;;;6.60;82.10;;;;;;5058038;28;20029;-64
2022/12/05 08:41:28;;;;;;;24.45;15.20;;;6.60;82.20;;;;;;5041977;28;20030;-64
2022/12/05 08:44:04;;;;;;;22.90;14.90;;;6.60;82.10;;;;;;5040575;28;20033;-64
2022/12/05 08:46:31;;;;;;;22.90;14.20;;;6.60;82.20;;;;;;5043189;28;20029;-67
2022/12/05 08:48:56;;;;;;;21.80;13.93;;;6.60;82.20;;;;;;5042167;28;20033;-64
2022/12/05 08:51:22;;;;;;;24.13;15.20;;;6.60;82.20;;;;;;5044879;28;20434;-65
2022/12/05 08:53:48;;;;;;;23.70;14.30;;;6.70;82.20;;;;;;5048943;28;20029;-65
2022/12/05 08:56:14;;;;;;;25.30;15.33;;;6.70;82.20;;;;;;5047322;28;20035;-64
2022/12/05 08:58:40;;;;;;;24.10;14.63;;;6.70;82.30;;;;;;5037993;28;20461;-64
2022/12/05 09:01:11;;;;;;;23.37;14.83;;;6.70;82.30;;;;;;5042516;28;20041;-64
2022/12/05 09:03:38;;;;;;;24.45;15.40;;;6.70;82.30;;;;;;5048108;28;20033;-64
2022/12/05 09:06:08;;;;;;;29.90;15.57;;;6.70;82.30;;;;;;5053893;28;20029;-64
2022/12/05 09:08:34;;;;;;;23.33;14.53;;;6.70;82.30;;;;;;5053580;28;20483;-64
2022/12/05 09:11:05;;;;;;;24.57;15.73;;;6.70;82.30;;;;;;5052316;28;20541;-64
2022/12/05 09:13:30;;;;;;;24.50;14.37;;;6.70;82.40;;;;;;5045145;28;20381;-64
2022/12/05 09:15:56;;;;;;;24.70;15.27;;;6.80;82.40;;;;;;5043822;28;20025;-64
2022/12/05 09:18:22;;;;;;;25.03;15.00;;;6.70;82.30;;;;;;5055090;28;20021;-64
2022/12/05 09:20:47;;;;;;;27.20;16.33;;;6.80;82.40;;;;;;5048459;28;20347;-64
2022/12/05 09:23:13;;;;;;;26.73;16.00;;;6.80;82.30;;;;;;5050625;28;20069;-64
2022/12/05 09:25:38;;;;;;;28.83;15.37;;;6.80;82.40;;;;;;5042269;28;20033;-64
2022/12/05 09:28:04;;;;;;;25.07;16.13;;;6.80;82.40;;;;;;5053046;28;20166;-64
2022/12/05 09:30:30;;;;;;;26.00;16.10;;;6.80;82.40;;;;;;5041465;28;20033;-64
2022/12/05 09:32:55;;;;;;;27.13;15.67;;;6.80;82.40;;;;;;5050583;28;20092;-64
2022/12/05 09:35:21;;;;;;;26.60;15.60;;;6.80;82.40;;;;;;5051261;28;20051;-64
2022/12/05 09:37:46;;;;;;;27.20;15.67;;;6.80;82.40;;;;;;5044783;28;20044;-64
2022/12/05 09:40:17;;;;;;;29.60;16.97;;;6.80;82.40;;;;;;5056028;28;20060;-64
2022/12/05 09:43:02;;;;;;;28.17;16.03;;;6.80;82.40;;;;;;5039268;28;20121;-64
2022/12/05 09:45:34;;;;;;;26.67;15.70;;;6.80;82.40;;;;;;5050029;28;20033;-64
2022/12/05 09:48:10;;;;;;;;;;;6.80;82.40;;;;;;5047871;28;20159;-64
2022/12/05 09:50:47;;;;;;;23.33;13.90;;;6.80;82.40;;;;;;5039379;28;19917;-64
2022/12/05 09:53:21;;;;;;;28.37;16.27;;;6.80;82.40;;;;;;5045526;28;20442;-64
2022/12/05 09:56:02;;;;;;;26.00;15.83;;;6.80;82.40;;;;;;5040273;28;20021;-65
2022/12/05 09:58:41;;;;;;;25.80;15.43;;;6.80;82.50;;;;;;5047789;28;20060;-64
2022/12/05 10:01:25;;;;;;;26.20;15.33;;;6.80;82.60;;;;;;5042552;28;20028;-67
2022/12/05 10:03:54;;;;;;;26.87;15.33;;;6.80;82.50;;;;;;5040930;28;20454;-64
2022/12/05 10:06:27;;;;;;;27.87;15.80;;;6.80;82.50;;;;;;5050268;28;20465;-64
2022/12/05 10:09:23;;;;;;;25.77;14.57;;;6.80;82.60;;;;;;5047349;28;20099;-64
2022/12/05 10:11:51;;;;;;;26.50;15.83;;;6.80;82.60;;;;;;5032976;28;20476;-64
2022/12/05 10:14:37;;;;;;;29.40;16.87;;;6.80;82.60;;;;;;5055119;28;20033;-64
2022/12/05 10:17:14;;;;;;;28.63;17.47;;;6.80;82.70;;;;;;5055793;28;20052;-64
2022/12/05 10:19:45;;;;;;;28.63;16.97;;;6.80;82.70;;;;;;5043009;28;20029;-64
2022/12/05 10:22:17;;;;;;;27.65;15.48;;;6.80;82.70;;;;;;5038615;28;20029;-64
2022/12/05 10:24:59;;;;;;;27.23;15.63;;;6.80;82.80;;;;;;5043563;28;20074;-64
2022/12/05 10:27:32;;;;;;;27.30;15.82;;;6.90;82.80;;;;;;5042088;28;20029;-64
2022/12/05 10:30:13;;;;;;;26.00;15.03;;;6.90;82.80;;;;;;5039395;28;20039;-64
2022/12/05 10:32:55;;;;;;;26.97;15.67;;;6.90;82.80;;;;;;5038605;28;20036;-64
2022/12/05 10:35:33;;;;;;;28.60;15.30;;;6.90;82.80;;;;;;5024995;28;20083;-64
2022/12/05 10:38:05;;;;;;;27.77;16.00;;;6.90;82.80;;;;;;5049525;28;20025;-64
2022/12/05 10:40:37;;;;;;;27.70;16.10;;;6.90;82.80;;;;;;5052487;28;20176;-64
2022/12/05 10:43:04;;;;;;;28.53;15.87;;;6.90;82.80;;;;;;5051092;28;20139;-64
2022/12/05 10:45:30;;;;;;;27.17;16.08;;;6.90;82.80;;;;;;5050941;28;20040;-64
2022/12/05 10:47:57;;;;;;;27.20;15.57;;;7.00;82.90;;;;;;5046890;28;20090;-64
2022/12/05 10:50:31;;;;;;;29.13;16.53;;;7.00;82.90;;;;;;5036845;28;20579;-65
2022/12/05 10:53:00;;;;;;;29.03;16.70;;;7.00;82.90;;;;;;5050969;28;20154;-65
2022/12/05 10:55:38;;;;;;;25.77;15.20;;;6.90;82.90;;;;;;5039382;28;20037;-64
2022/12/05 10:58:11;;;;;;;28.15;15.10;;;7.00;83.00;;;;;;5032433;28;20021;-65
2022/12/05 11:00:43;;;;;;;26.90;16.17;;;7.00;83.00;;;;;;5053834;28;20041;-64
2022/12/05 11:03:28;;;;;;;23.10;14.10;;;7.00;83.00;;;;;;5043433;28;20028;-65
2022/12/05 11:05:56;;;;;;;24.93;14.97;;;7.00;83.00;;;;;;5054712;28;20350;-64
2022/12/05 11:08:30;;;;;;;25.07;14.47;;;7.00;83.00;;;;;;5043454;28;20037;-64
2022/12/05 11:11:14;;;;;;;24.63;14.97;;;7.00;83.00;;;;;;5039169;28;20044;-64
2022/12/05 11:13:53;;;;;;;23.40;14.43;;;7.00;83.00;;;;;;5026361;28;20033;-64
2022/12/05 11:16:28;;;;;;;23.33;13.87;;;7.10;83.00;;;;;;5036492;28;20056;-64
2022/12/05 11:18:54;;;;;;;23.83;14.77;;;7.00;82.90;;;;;;5030356;28;20022;-64
2022/12/05 11:21:19;;;;;;;27.63;15.17;;;7.10;82.90;;;;;;5036336;28;20128;-64
2022/12/05 11:23:47;;;;;;;26.37;14.67;;;7.10;82.90;;;;;;5031813;28;20084;-64
2022/12/05 11:26:34;;;;;;;25.40;14.50;;;7.10;82.90;;;;;;5031605;28;20385;-64
2022/12/05 11:29:01;;;;;;;22.93;13.60;;;7.10;82.90;;;;;;5028424;28;20331;-64
2022/12/05 11:31:30;;;;;;;22.70;14.40;;;7.10;82.90;;;;;;5039236;28;20342;-64
2022/12/05 11:34:15;;;;;;;22.23;13.80;;;7.10;82.90;;;;;;5032292;28;20029;-64
2022/12/05 11:36:46;;;;;;;25.50;14.95;;;7.20;83.00;;;;;;5036294;28;20361;-64
2022/12/05 11:39:13;;;;;;;25.37;14.23;;;7.20;83.00;;;;;;5034137;28;20100;-64
2022/12/05 11:42:15;;;;;;;24.50;15.32;;;7.20;82.90;;;;;;5034923;28;20094;-64
2022/12/05 11:45:07;;;;;;;23.65;14.98;;;7.20;83.00;;;;;;5028688;28;20049;-64
2022/12/05 11:47:33;;;;;;;;;;;7.20;82.90;;;;;;5033748;28;20041;-65
2022/12/05 11:50:17;;;;;;;19.63;12.27;;;7.20;82.80;;;;;;5031406;28;20340;-65
2022/12/05 11:53:10;;;;;;;20.23;13.07;;;7.20;82.80;;;;;;5038970;28;20021;-65
2022/12/05 11:55:44;;;;;;;18.65;11.30;;;7.20;82.90;;;;;;5038497;28;20071;-65
2022/12/05 11:58:27;;;;;;;15.83;10.53;;;7.10;82.80;;;;;;5036459;28;20104;-64
2022/12/05 12:01:32;;;;;;;18.23;11.80;;;7.10;82.90;;;;;;5032801;28;20037;-64
2022/12/05 12:04:35;;;;;;;18.13;11.03;;;7.10;82.90;;;;;;5044695;28;20130;-64
2022/12/05 12:07:13;;;;;;;19.37;11.43;;;7.10;82.90;;;;;;5029697;28;20033;-63
2022/12/05 12:10:02;;;;;;;17.17;11.00;;;7.10;82.90;;;;;;5027624;28;20045;-63
2022/12/05 12:13:13;;;;;;;17.23;11.27;;;7.10;82.90;;;;;;5036497;28;20033;-63
2022/12/05 12:16:08;;;;;;;17.88;12.40;;;7.10;83.00;;;;;;5046115;28;20037;-64
2022/12/05 12:18:51;;;;;;;18.33;11.52;;;7.10;82.90;;;;;;5030391;28;20128;-62
2022/12/05 12:21:28;;;;;;;16.80;11.23;;;7.20;83.00;;;;;;5031161;28;20068;-62
2022/12/05 12:24:18;;;;;;;15.87;10.80;;;7.10;83.00;;;;;;5031296;28;20168;-63
2022/12/05 12:27:30;;;;;;;16.17;10.00;;;7.10;83.00;;;;;;5032300;28;20033;-63
2022/12/05 12:30:02;;;;;;;15.55;10.18;;;7.10;82.90;;;;;;5030930;28;20145;-62
2022/12/05 12:32:42;;;;;;;16.27;10.67;;;7.10;83.00;;;;;;5033224;28;20105;-62
2022/12/05 12:35:13;;;;;;;16.53;10.53;;;7.10;83.10;;;;;;5037855;28;20426;-62
2022/12/05 12:38:17;;;;;;;15.70;10.23;;;7.10;83.10;;;;;;5045388;28;20039;-63
2022/12/05 12:41:00;;;;;;;16.27;9.87;;;7.20;83.10;;;;;;5040662;28;20032;-63
2022/12/05 12:44:01;;;;;;;15.53;9.70;;;7.20;83.10;;;;;;5052628;28;20048;-62
2022/12/05 12:46:42;;;;;;;16.87;9.80;;;7.20;83.00;;;;;;5031133;28;20037;-63
2022/12/05 12:49:21;;;;;;;15.73;10.23;;;7.20;83.00;;;;;;5054839;28;20060;-62
2022/12/05 12:52:00;;;;;;;15.17;9.97;;;7.20;83.10;;;;;;5045613;28;20103;-62
2022/12/05 12:54:46;;;;;;;13.10;8.37;;;7.20;83.10;;;;;;5035626;28;20033;-62
2022/12/05 12:57:25;;;;;;;15.30;8.90;;;7.20;83.10;;;;;;5044037;28;20363;-63
2022/12/05 13:00:25;;;;;;;15.17;9.57;;;7.20;83.10;;;;;;5045259;28;20037;-64
2022/12/05 13:03:01;;;;;;;15.27;9.53;;;7.20;83.10;;;;;;5040427;28;20484;-63
2022/12/05 13:05:47;;;;;;;14.88;9.40;;;7.20;83.10;;;;;;5046144;28;20079;-64
2022/12/05 13:08:22;;;;;;;15.30;9.43;;;7.20;83.10;;;;;;5040807;28;20025;-64
2022/12/05 13:10:48;;;;;;;14.53;9.57;;;7.20;83.10;;;;;;5039026;28;20029;-63